sensor_id;sensor_type;location;lat;lon;timestamp;P1;durP1;ratioP1;P2;durP2;ratioP2
47617;SDS011;33336;36.728;-4.414;2024-03-06T00:01:26;5.28;;;2.20;;
47617;SDS011;33336;36.728;-4.414;2024-03-06T00:06:28;6.93;;;2.33;;
47617;SDS011;33336;36.728;-4.414;2024-03-06T00:11:31;3.55;;;1.90;;
47617;SDS011;33336;36.728;-4.414;2024-03-06T00:16:37;6.00;;;1.90;;
47617;SDS011;33336;36.728;-4.414;2024-03-06T00:21:40;5.13;;;1.92;;
47617;SDS011;33336;36.728;-4.414;2024-03-06T00:26:44;7.38;;;2.03;;
47617;SDS011;33336;36.728;-4.414;2024-03-06T00:31:49;4.03;;;1.80;;
47617;SDS011;33336;36.728;-4.414;2024-03-06T00:36:52;5.97;;;2.45;;
47617;SDS011;33336;36.728;-4.414;2024-03-06T00:41:56;6.15;;;2.00;;
47617;SDS011;33336;36.728;-4.414;2024-03-06T00:47:01;3.25;;;1.73;;
47617;SDS011;33336;36.728;-4.414;2024-03-06T00:52:04;6.20;;;1.95;;
47617;SDS011;33336;36.728;-4.414;2024-03-06T00:57:07;6.68;;;2.47;;
47617;SDS011;33336;36.728;-4.414;2024-03-06T01:02:12;4.07;;;2.03;;
47617;SDS011;33336;36.728;-4.414;2024-03-06T01:07:16;6.93;;;2.33;;
47617;SDS011;33336;36.728;-4.414;2024-03-06T01:12:19;5.40;;;1.75;;
47617;SDS011;33336;36.728;-4.414;2024-03-06T01:17:24;5.32;;;1.77;;
47617;SDS011;33336;36.728;-4.414;2024-03-06T01:22:27;4.38;;;1.92;;
47617;SDS011;33336;36.728;-4.414;2024-03-06T01:27:30;5.18;;;2.25;;
47617;SDS011;33336;36.728;-4.414;2024-03-06T01:32:35;5.88;;;2.00;;
47617;SDS011;33336;36.728;-4.414;2024-03-06T01:37:38;9.73;;;2.40;;
47617;SDS011;33336;36.728;-4.414;2024-03-06T01:42:41;4.50;;;1.75;;
47617;SDS011;33336;36.728;-4.414;2024-03-06T01:47:46;4.75;;;1.77;;
47617;SDS011;33336;36.728;-4.414;2024-03-06T01:52:49;4.45;;;1.98;;
47617;SDS011;33336;36.728;-4.414;2024-03-06T01:57:53;7.78;;;1.83;;
47617;SDS011;33336;36.728;-4.414;2024-03-06T02:02:58;5.28;;;1.60;;
47617;SDS011;33336;36.728;-4.414;2024-03-06T02:08:01;6.95;;;2.45;;
47617;SDS011;33336;36.728;-4.414;2024-03-06T02:13:06;5.03;;;1.77;;
47617;SDS011;33336;36.728;-4.414;2024-03-06T02:18:12;4.70;;;1.67;;
47617;SDS011;33336;36.728;-4.414;2024-03-06T02:23:16;5.28;;;1.70;;
47617;SDS011;33336;36.728;-4.414;2024-03-06T02:28:21;4.63;;;1.50;;
47617;SDS011;33336;36.728;-4.414;2024-03-06T02:33:24;3.58;;;1.55;;
47617;SDS011;33336;36.728;-4.414;2024-03-06T02:38:29;8.18;;;1.75;;
47617;SDS011;33336;36.728;-4.414;2024-03-06T02:43:31;3.58;;;1.50;;
47617;SDS011;33336;36.728;-4.414;2024-03-06T02:48:34;9.98;;;1.70;;
47617;SDS011;33336;36.728;-4.414;2024-03-06T02:53:38;2.95;;;1.60;;
47617;SDS011;33336;36.728;-4.414;2024-03-06T02:58:41;4.90;;;1.98;;
47617;SDS011;33336;36.728;-4.414;2024-03-06T03:03:44;5.10;;;1.45;;
47617;SDS011;33336;36.728;-4.414;2024-03-06T03:08:50;6.50;;;1.83;;
47617;SDS011;33336;36.728;-4.414;2024-03-06T03:13:52;3.38;;;1.55;;
47617;SDS011;33336;36.728;-4.414;2024-03-06T03:18:55;6.03;;;1.85;;
47617;SDS011;33336;36.728;-4.414;2024-03-06T03:23:59;3.65;;;1.40;;
47617;SDS011;33336;36.728;-4.414;2024-03-06T03:29:04;2.83;;;1.10;;
47617;SDS011;33336;36.728;-4.414;2024-03-06T03:34:07;3.88;;;1.50;;
47617;SDS011;33336;36.728;-4.414;2024-03-06T03:39:13;6.55;;;1.70;;
47617;SDS011;33336;36.728;-4.414;2024-03-06T03:44:17;3.97;;;1.60;;
47617;SDS011;33336;36.728;-4.414;2024-03-06T03:49:21;4.57;;;1.80;;
47617;SDS011;33336;36.728;-4.414;2024-03-06T03:54:26;4.40;;;1.58;;
47617;SDS011;33336;36.728;-4.414;2024-03-06T03:59:29;5.80;;;2.08;;
47617;SDS011;33336;36.728;-4.414;2024-03-06T04:04:32;2.97;;;1.30;;
47617;SDS011;33336;36.728;-4.414;2024-03-06T04:09:37;4.88;;;1.63;;
47617;SDS011;33336;36.728;-4.414;2024-03-06T04:14:39;4.55;;;1.65;;
47617;SDS011;33336;36.728;-4.414;2024-03-06T04:19:43;4.72;;;1.45;;
47617;SDS011;33336;36.728;-4.414;2024-03-06T04:24:50;3.40;;;1.13;;
47617;SDS011;33336;36.728;-4.414;2024-03-06T04:29:53;6.75;;;1.50;;
47617;SDS011;33336;36.728;-4.414;2024-03-06T04:34:56;3.67;;;1.40;;
47617;SDS011;33336;36.728;-4.414;2024-03-06T04:40:02;5.25;;;1.63;;
47617;SDS011;33336;36.728;-4.414;2024-03-06T04:45:09;2.92;;;1.33;;
47617;SDS011;33336;36.728;-4.414;2024-03-06T04:50:13;3.60;;;1.23;;
47617;SDS011;33336;36.728;-4.414;2024-03-06T04:55:17;4.40;;;0.98;;
47617;SDS011;33336;36.728;-4.414;2024-03-06T05:00:23;5.10;;;1.00;;
47617;SDS011;33336;36.728;-4.414;2024-03-06T05:05:26;3.42;;;1.17;;
47617;SDS011;33336;36.728;-4.414;2024-03-06T05:10:32;6.68;;;1.40;;
47617;SDS011;33336;36.728;-4.414;2024-03-06T05:15:35;3.50;;;1.42;;
47617;SDS011;33336;36.728;-4.414;2024-03-06T05:20:40;4.75;;;1.63;;
47617;SDS011;33336;36.728;-4.414;2024-03-06T05:25:45;3.83;;;1.20;;
47617;SDS011;33336;36.728;-4.414;2024-03-06T05:30:48;4.28;;;1.30;;
47617;SDS011;33336;36.728;-4.414;2024-03-06T05:35:51;4.70;;;1.30;;
47617;SDS011;33336;36.728;-4.414;2024-03-06T05:40:56;2.97;;;1.40;;
47617;SDS011;33336;36.728;-4.414;2024-03-06T05:45:58;6.38;;;1.45;;
47617;SDS011;33336;36.728;-4.414;2024-03-06T05:51:02;6.43;;;1.25;;
47617;SDS011;33336;36.728;-4.414;2024-03-06T05:56:07;1.63;;;0.90;;
47617;SDS011;33336;36.728;-4.414;2024-03-06T06:01:11;6.78;;;1.38;;
47617;SDS011;33336;36.728;-4.414;2024-03-06T06:06:14;6.53;;;1.40;;
47617;SDS011;33336;36.728;-4.414;2024-03-06T06:11:19;6.55;;;2.25;;
47617;SDS011;33336;36.728;-4.414;2024-03-06T06:16:21;4.63;;;1.50;;
47617;SDS011;33336;36.728;-4.414;2024-03-06T06:21:25;7.03;;;2.10;;
47617;SDS011;33336;36.728;-4.414;2024-03-06T06:26:30;8.10;;;2.88;;
47617;SDS011;33336;36.728;-4.414;2024-03-06T06:31:33;7.43;;;1.15;;
47617;SDS011;33336;36.728;-4.414;2024-03-06T06:36:36;8.10;;;1.75;;
47617;SDS011;33336;36.728;-4.414;2024-03-06T06:41:44;4.05;;;1.80;;
47617;SDS011;33336;36.728;-4.414;2024-03-06T06:46:46;5.18;;;1.90;;
47617;SDS011;33336;36.728;-4.414;2024-03-06T06:51:50;5.47;;;2.28;;
47617;SDS011;33336;36.728;-4.414;2024-03-06T06:56:54;3.08;;;1.95;;
47617;SDS011;33336;36.728;-4.414;2024-03-06T07:01:58;9.07;;;2.58;;
47617;SDS011;33336;36.728;-4.414;2024-03-06T07:07:01;3.58;;;2.05;;
47617;SDS011;33336;36.728;-4.414;2024-03-06T07:12:06;5.38;;;2.50;;
47617;SDS011;33336;36.728;-4.414;2024-03-06T07:17:09;5.32;;;2.65;;
47617;SDS011;33336;36.728;-4.414;2024-03-06T07:22:12;6.22;;;2.10;;
47617;SDS011;33336;36.728;-4.414;2024-03-06T07:27:16;8.18;;;2.63;;
47617;SDS011;33336;36.728;-4.414;2024-03-06T07:32:20;6.35;;;2.63;;
47617;SDS011;33336;36.728;-4.414;2024-03-06T07:37:23;8.80;;;2.65;;
47617;SDS011;33336;36.728;-4.414;2024-03-06T07:42:28;8.65;;;2.40;;
47617;SDS011;33336;36.728;-4.414;2024-03-06T07:47:30;9.60;;;2.20;;
47617;SDS011;33336;36.728;-4.414;2024-03-06T07:52:33;9.27;;;2.70;;
47617;SDS011;33336;36.728;-4.414;2024-03-06T07:57:38;11.93;;;2.53;;
47617;SDS011;33336;36.728;-4.414;2024-03-06T08:02:41;11.43;;;2.45;;
47617;SDS011;33336;36.728;-4.414;2024-03-06T08:07:44;19.08;;;2.55;;
47617;SDS011;33336;36.728;-4.414;2024-03-06T08:12:50;10.52;;;2.67;;
47617;SDS011;33336;36.728;-4.414;2024-03-06T08:17:52;10.23;;;2.65;;
47617;SDS011;33336;36.728;-4.414;2024-03-06T08:22:56;22.88;;;3.88;;
47617;SDS011;33336;36.728;-4.414;2024-03-06T08:28:01;13.55;;;2.83;;
47617;SDS011;33336;36.728;-4.414;2024-03-06T08:33:06;8.82;;;2.47;;
47617;SDS011;33336;36.728;-4.414;2024-03-06T08:38:09;5.80;;;2.35;;
47617;SDS011;33336;36.728;-4.414;2024-03-06T08:43:14;6.53;;;2.80;;
47617;SDS011;33336;36.728;-4.414;2024-03-06T08:48:16;11.07;;;3.47;;
47617;SDS011;33336;36.728;-4.414;2024-03-06T08:53:20;8.63;;;4.18;;
47617;SDS011;33336;36.728;-4.414;2024-03-06T08:58:24;16.00;;;3.67;;
47617;SDS011;33336;36.728;-4.414;2024-03-06T09:03:28;16.63;;;4.20;;
47617;SDS011;33336;36.728;-4.414;2024-03-06T09:08:32;16.42;;;3.67;;
47617;SDS011;33336;36.728;-4.414;2024-03-06T09:13:37;15.45;;;4.00;;
47617;SDS011;33336;36.728;-4.414;2024-03-06T09:18:39;13.27;;;3.63;;
47617;SDS011;33336;36.728;-4.414;2024-03-06T09:23:42;13.38;;;4.10;;
47617;SDS011;33336;36.728;-4.414;2024-03-06T09:28:47;23.80;;;4.28;;
47617;SDS011;33336;36.728;-4.414;2024-03-06T09:33:50;11.57;;;3.13;;
47617;SDS011;33336;36.728;-4.414;2024-03-06T09:38:54;8.68;;;2.90;;
47617;SDS011;33336;36.728;-4.414;2024-03-06T09:43:59;15.68;;;3.38;;
47617;SDS011;33336;36.728;-4.414;2024-03-06T09:49:03;17.60;;;3.17;;
47617;SDS011;33336;36.728;-4.414;2024-03-06T09:54:08;11.30;;;3.42;;
47617;SDS011;33336;36.728;-4.414;2024-03-06T09:59:13;12.30;;;3.88;;
47617;SDS011;33336;36.728;-4.414;2024-03-06T10:04:18;13.35;;;3.08;;
47617;SDS011;33336;36.728;-4.414;2024-03-06T10:09:21;11.52;;;2.60;;
47617;SDS011;33336;36.728;-4.414;2024-03-06T10:14:26;11.43;;;2.97;;
47617;SDS011;33336;36.728;-4.414;2024-03-06T10:19:29;16.10;;;3.75;;
47617;SDS011;33336;36.728;-4.414;2024-03-06T10:24:33;16.92;;;3.10;;
47617;SDS011;33336;36.728;-4.414;2024-03-06T10:29:37;10.82;;;3.17;;
47617;SDS011;33336;36.728;-4.414;2024-03-06T10:34:44;12.23;;;3.28;;
47617;SDS011;33336;36.728;-4.414;2024-03-06T10:39:47;13.30;;;2.60;;
47617;SDS011;33336;36.728;-4.414;2024-03-06T10:45:00;19.05;;;3.88;;
47617;SDS011;33336;36.728;-4.414;2024-03-06T10:50:05;25.20;;;13.25;;
47617;SDS011;33336;36.728;-4.414;2024-03-06T10:55:11;15.50;;;5.55;;
47617;SDS011;33336;36.728;-4.414;2024-03-06T11:00:17;16.05;;;4.22;;
47617;SDS011;33336;36.728;-4.414;2024-03-06T11:05:21;11.20;;;3.70;;
47617;SDS011;33336;36.728;-4.414;2024-03-06T11:10:31;16.73;;;3.13;;
47617;SDS011;33336;36.728;-4.414;2024-03-06T11:15:35;12.50;;;3.83;;
47617;SDS011;33336;36.728;-4.414;2024-03-06T11:20:38;10.23;;;3.38;;
47617;SDS011;33336;36.728;-4.414;2024-03-06T11:25:58;17.10;;;4.72;;
47617;SDS011;33336;36.728;-4.414;2024-03-06T11:31:05;11.77;;;3.22;;
47617;SDS011;33336;36.728;-4.414;2024-03-06T11:36:16;8.77;;;2.92;;
47617;SDS011;33336;36.728;-4.414;2024-03-06T11:41:21;9.32;;;2.97;;
47617;SDS011;33336;36.728;-4.414;2024-03-06T11:51:57;14.77;;;4.32;;
47617;SDS011;33336;36.728;-4.414;2024-03-06T12:02:05;15.10;;;3.00;;
47617;SDS011;33336;36.728;-4.414;2024-03-06T12:07:12;28.55;;;4.00;;
47617;SDS011;33336;36.728;-4.414;2024-03-06T12:12:16;29.42;;;4.57;;
47617;SDS011;33336;36.728;-4.414;2024-03-06T12:17:20;14.35;;;3.55;;
47617;SDS011;33336;36.728;-4.414;2024-03-06T12:22:26;23.15;;;4.57;;
47617;SDS011;33336;36.728;-4.414;2024-03-06T12:27:29;15.85;;;3.20;;
47617;SDS011;33336;36.728;-4.414;2024-03-06T12:32:32;14.95;;;3.72;;
47617;SDS011;33336;36.728;-4.414;2024-03-06T12:37:37;16.17;;;4.63;;
47617;SDS011;33336;36.728;-4.414;2024-03-06T12:42:40;19.20;;;3.88;;
47617;SDS011;33336;36.728;-4.414;2024-03-06T12:47:44;16.88;;;2.97;;
47617;SDS011;33336;36.728;-4.414;2024-03-06T12:52:51;30.63;;;5.10;;
47617;SDS011;33336;36.728;-4.414;2024-03-06T12:57:54;11.07;;;3.55;;
47617;SDS011;33336;36.728;-4.414;2024-03-06T13:02:57;26.17;;;4.75;;
47617;SDS011;33336;36.728;-4.414;2024-03-06T13:08:02;52.97;;;9.00;;
47617;SDS011;33336;36.728;-4.414;2024-03-06T13:13:05;15.90;;;4.63;;
47617;SDS011;33336;36.728;-4.414;2024-03-06T13:18:09;22.13;;;5.15;;
47617;SDS011;33336;36.728;-4.414;2024-03-06T13:23:13;13.77;;;3.78;;
47617;SDS011;33336;36.728;-4.414;2024-03-06T13:28:17;7.88;;;2.60;;
47617;SDS011;33336;36.728;-4.414;2024-03-06T13:33:21;10.23;;;3.38;;
47617;SDS011;33336;36.728;-4.414;2024-03-06T13:38:28;11.93;;;2.50;;
47617;SDS011;33336;36.728;-4.414;2024-03-06T13:43:31;6.95;;;2.42;;
47617;SDS011;33336;36.728;-4.414;2024-03-06T13:48:34;14.68;;;3.45;;
47617;SDS011;33336;36.728;-4.414;2024-03-06T13:53:38;11.25;;;2.88;;
47617;SDS011;33336;36.728;-4.414;2024-03-06T13:58:42;10.57;;;2.50;;
47617;SDS011;33336;36.728;-4.414;2024-03-06T14:03:45;11.63;;;3.22;;
47617;SDS011;33336;36.728;-4.414;2024-03-06T14:08:50;9.63;;;3.30;;
47617;SDS011;33336;36.728;-4.414;2024-03-06T14:13:55;9.93;;;2.60;;
47617;SDS011;33336;36.728;-4.414;2024-03-06T14:19:00;9.13;;;2.78;;
47617;SDS011;33336;36.728;-4.414;2024-03-06T14:24:06;9.85;;;2.40;;
47617;SDS011;33336;36.728;-4.414;2024-03-06T14:29:10;9.20;;;2.28;;
47617;SDS011;33336;36.728;-4.414;2024-03-06T14:34:13;9.40;;;2.97;;
47617;SDS011;33336;36.728;-4.414;2024-03-06T14:39:17;12.45;;;3.35;;
47617;SDS011;33336;36.728;-4.414;2024-03-06T14:44:22;13.83;;;3.03;;
47617;SDS011;33336;36.728;-4.414;2024-03-06T14:49:26;16.73;;;3.40;;
47617;SDS011;33336;36.728;-4.414;2024-03-06T14:54:30;15.30;;;3.60;;
47617;SDS011;33336;36.728;-4.414;2024-03-06T14:59:34;17.73;;;2.83;;
47617;SDS011;33336;36.728;-4.414;2024-03-06T15:04:37;13.73;;;2.70;;
47617;SDS011;33336;36.728;-4.414;2024-03-06T15:09:41;11.38;;;2.60;;
47617;SDS011;33336;36.728;-4.414;2024-03-06T15:14:44;14.75;;;2.58;;
47617;SDS011;33336;36.728;-4.414;2024-03-06T15:19:48;10.60;;;2.38;;
47617;SDS011;33336;36.728;-4.414;2024-03-06T15:24:52;9.52;;;3.28;;
47617;SDS011;33336;36.728;-4.414;2024-03-06T15:29:56;13.10;;;3.10;;
47617;SDS011;33336;36.728;-4.414;2024-03-06T15:34:59;8.88;;;2.80;;
47617;SDS011;33336;36.728;-4.414;2024-03-06T15:40:04;5.75;;;2.13;;
47617;SDS011;33336;36.728;-4.414;2024-03-06T15:45:10;8.27;;;2.40;;
47617;SDS011;33336;36.728;-4.414;2024-03-06T15:50:14;12.93;;;2.67;;
47617;SDS011;33336;36.728;-4.414;2024-03-06T15:55:18;6.70;;;3.15;;
47617;SDS011;33336;36.728;-4.414;2024-03-06T16:00:23;16.77;;;3.00;;
47617;SDS011;33336;36.728;-4.414;2024-03-06T16:05:26;11.85;;;2.83;;
47617;SDS011;33336;36.728;-4.414;2024-03-06T16:10:31;11.85;;;2.90;;
47617;SDS011;33336;36.728;-4.414;2024-03-06T16:15:35;14.43;;;2.75;;
47617;SDS011;33336;36.728;-4.414;2024-03-06T16:20:39;8.07;;;2.67;;
47617;SDS011;33336;36.728;-4.414;2024-03-06T16:25:43;8.73;;;2.72;;
47617;SDS011;33336;36.728;-4.414;2024-03-06T16:30:48;7.40;;;1.87;;
47617;SDS011;33336;36.728;-4.414;2024-03-06T16:35:51;8.70;;;2.50;;
47617;SDS011;33336;36.728;-4.414;2024-03-06T16:40:56;15.52;;;3.53;;
47617;SDS011;33336;36.728;-4.414;2024-03-06T16:45:59;9.80;;;2.67;;
47617;SDS011;33336;36.728;-4.414;2024-03-06T16:51:03;8.60;;;2.20;;
47617;SDS011;33336;36.728;-4.414;2024-03-06T16:56:08;10.97;;;2.87;;
47617;SDS011;33336;36.728;-4.414;2024-03-06T17:01:12;13.97;;;2.67;;
47617;SDS011;33336;36.728;-4.414;2024-03-06T17:06:15;9.70;;;2.95;;
47617;SDS011;33336;36.728;-4.414;2024-03-06T17:11:21;6.85;;;2.13;;
47617;SDS011;33336;36.728;-4.414;2024-03-06T17:16:24;8.35;;;2.53;;
47617;SDS011;33336;36.728;-4.414;2024-03-06T17:21:28;12.48;;;2.42;;
47617;SDS011;33336;36.728;-4.414;2024-03-06T17:26:38;10.45;;;3.15;;
47617;SDS011;33336;36.728;-4.414;2024-03-06T17:31:42;24.77;;;4.60;;
47617;SDS011;33336;36.728;-4.414;2024-03-06T17:36:45;7.75;;;3.00;;
47617;SDS011;33336;36.728;-4.414;2024-03-06T17:41:50;10.90;;;3.25;;
47617;SDS011;33336;36.728;-4.414;2024-03-06T17:46:53;8.77;;;3.25;;
47617;SDS011;33336;36.728;-4.414;2024-03-06T17:51:58;9.43;;;3.38;;
47617;SDS011;33336;36.728;-4.414;2024-03-06T17:57:02;7.32;;;3.20;;
47617;SDS011;33336;36.728;-4.414;2024-03-06T18:02:07;12.20;;;3.50;;
47617;SDS011;33336;36.728;-4.414;2024-03-06T18:07:10;10.00;;;3.05;;
47617;SDS011;33336;36.728;-4.414;2024-03-06T18:12:15;22.30;;;4.82;;
47617;SDS011;33336;36.728;-4.414;2024-03-06T18:17:18;18.25;;;4.25;;
47617;SDS011;33336;36.728;-4.414;2024-03-06T18:22:23;12.70;;;4.25;;
47617;SDS011;33336;36.728;-4.414;2024-03-06T18:27:27;14.77;;;3.72;;
47617;SDS011;33336;36.728;-4.414;2024-03-06T18:32:31;12.55;;;4.20;;
47617;SDS011;33336;36.728;-4.414;2024-03-06T18:37:34;14.88;;;5.18;;
47617;SDS011;33336;36.728;-4.414;2024-03-06T18:42:39;9.82;;;3.65;;
47617;SDS011;33336;36.728;-4.414;2024-03-06T18:47:42;16.33;;;4.05;;
47617;SDS011;33336;36.728;-4.414;2024-03-06T18:52:47;12.32;;;4.03;;
47617;SDS011;33336;36.728;-4.414;2024-03-06T18:57:52;11.05;;;4.03;;
47617;SDS011;33336;36.728;-4.414;2024-03-06T19:02:56;11.48;;;4.70;;
47617;SDS011;33336;36.728;-4.414;2024-03-06T19:07:58;11.73;;;4.32;;
47617;SDS011;33336;36.728;-4.414;2024-03-06T19:13:04;14.90;;;4.65;;
47617;SDS011;33336;36.728;-4.414;2024-03-06T19:18:07;10.90;;;3.67;;
47617;SDS011;33336;36.728;-4.414;2024-03-06T19:23:12;11.68;;;4.53;;
47617;SDS011;33336;36.728;-4.414;2024-03-06T19:28:16;12.10;;;4.03;;
47617;SDS011;33336;36.728;-4.414;2024-03-06T19:33:21;12.65;;;4.40;;
47617;SDS011;33336;36.728;-4.414;2024-03-06T19:38:24;16.08;;;4.75;;
47617;SDS011;33336;36.728;-4.414;2024-03-06T19:43:30;16.45;;;5.40;;
47617;SDS011;33336;36.728;-4.414;2024-03-06T19:48:36;17.63;;;4.45;;
47617;SDS011;33336;36.728;-4.414;2024-03-06T19:53:42;12.25;;;3.97;;
47617;SDS011;33336;36.728;-4.414;2024-03-06T19:58:48;12.18;;;4.40;;
47617;SDS011;33336;36.728;-4.414;2024-03-06T20:03:52;21.00;;;5.97;;
47617;SDS011;33336;36.728;-4.414;2024-03-06T20:08:57;16.77;;;5.65;;
47617;SDS011;33336;36.728;-4.414;2024-03-06T20:14:03;13.50;;;5.70;;
47617;SDS011;33336;36.728;-4.414;2024-03-06T20:19:07;16.00;;;6.70;;
47617;SDS011;33336;36.728;-4.414;2024-03-06T20:24:11;17.38;;;5.13;;
47617;SDS011;33336;36.728;-4.414;2024-03-06T20:29:16;19.20;;;5.30;;
47617;SDS011;33336;36.728;-4.414;2024-03-06T20:34:21;18.35;;;5.20;;
47617;SDS011;33336;36.728;-4.414;2024-03-06T20:39:27;18.43;;;6.37;;
47617;SDS011;33336;36.728;-4.414;2024-03-06T20:44:33;17.45;;;5.57;;
47617;SDS011;33336;36.728;-4.414;2024-03-06T20:49:37;18.05;;;7.15;;
47617;SDS011;33336;36.728;-4.414;2024-03-06T20:54:42;14.02;;;6.35;;
47617;SDS011;33336;36.728;-4.414;2024-03-06T20:59:46;16.85;;;7.10;;
47617;SDS011;33336;36.728;-4.414;2024-03-06T21:04:52;21.45;;;7.40;;
47617;SDS011;33336;36.728;-4.414;2024-03-06T21:09:59;22.77;;;7.28;;
47617;SDS011;33336;36.728;-4.414;2024-03-06T21:15:05;20.35;;;8.68;;
47617;SDS011;33336;36.728;-4.414;2024-03-06T21:25:15;18.98;;;8.40;;
47617;SDS011;33336;36.728;-4.414;2024-03-06T21:30:20;17.83;;;8.75;;
47617;SDS011;33336;36.728;-4.414;2024-03-06T21:35:27;20.83;;;8.77;;
47617;SDS011;33336;36.728;-4.414;2024-03-06T21:40:30;21.40;;;9.13;;
47617;SDS011;33336;36.728;-4.414;2024-03-06T21:45:36;21.50;;;9.60;;
47617;SDS011;33336;36.728;-4.414;2024-03-06T21:50:40;19.17;;;8.85;;
47617;SDS011;33336;36.728;-4.414;2024-03-06T21:55:44;22.83;;;10.32;;
47617;SDS011;33336;36.728;-4.414;2024-03-06T22:00:49;22.73;;;8.35;;
47617;SDS011;33336;36.728;-4.414;2024-03-06T22:05:53;15.00;;;7.75;;
47617;SDS011;33336;36.728;-4.414;2024-03-06T22:10:57;17.15;;;8.32;;
47617;SDS011;33336;36.728;-4.414;2024-03-06T22:16:02;18.00;;;7.15;;
47617;SDS011;33336;36.728;-4.414;2024-03-06T22:21:05;19.48;;;8.43;;
47617;SDS011;33336;36.728;-4.414;2024-03-06T22:26:09;17.35;;;6.85;;
47617;SDS011;33336;36.728;-4.414;2024-03-06T22:31:13;13.48;;;5.60;;
47617;SDS011;33336;36.728;-4.414;2024-03-06T22:36:17;13.75;;;5.00;;
47617;SDS011;33336;36.728;-4.414;2024-03-06T22:41:20;17.75;;;6.32;;
47617;SDS011;33336;36.728;-4.414;2024-03-06T22:46:27;15.30;;;6.45;;
47617;SDS011;33336;36.728;-4.414;2024-03-06T22:51:30;20.30;;;6.70;;
47617;SDS011;33336;36.728;-4.414;2024-03-06T22:56:35;16.35;;;5.85;;
47617;SDS011;33336;36.728;-4.414;2024-03-06T23:01:40;13.32;;;5.55;;
47617;SDS011;33336;36.728;-4.414;2024-03-06T23:06:45;12.20;;;5.75;;
47617;SDS011;33336;36.728;-4.414;2024-03-06T23:11:48;11.52;;;4.95;;
47617;SDS011;33336;36.728;-4.414;2024-03-06T23:16:54;19.10;;;5.88;;
47617;SDS011;33336;36.728;-4.414;2024-03-06T23:21:56;11.32;;;5.47;;
47617;SDS011;33336;36.728;-4.414;2024-03-06T23:27:00;14.65;;;7.40;;
47617;SDS011;33336;36.728;-4.414;2024-03-06T23:32:04;13.63;;;5.55;;
47617;SDS011;33336;36.728;-4.414;2024-03-06T23:37:09;19.95;;;5.78;;
47617;SDS011;33336;36.728;-4.414;2024-03-06T23:42:12;10.75;;;5.60;;
47617;SDS011;33336;36.728;-4.414;2024-03-06T23:47:16;13.35;;;5.80;;
47617;SDS011;33336;36.728;-4.414;2024-03-06T23:52:19;13.98;;;5.80;;
47617;SDS011;33336;36.728;-4.414;2024-03-06T23:57:23;16.83;;;5.70;;
